Espace membre
ImprimablePdf
Challenges > Delhalle - Bousval, 06/03/2011, BEL - Le Cross de Bousval
Liste des rapports > Delhalle - 14.35km - Classement
Recherche: Page: [1]
38 Entrées
 
Les réclamations ne sont plus acceptées, les résultats sont considérés comme définitifs.
RangNrNomAgeIOCLigueEquipeRéelTempsTkmMoy.ScrPtsLocalité
1.450FBLAISE Christiane49BELARCH1:04:531:05:074:33 13.22170696ANTHEE
2.2293FBERGHEZAN Marie-Christine47BELOEM1:07:321:07:454:44 12.71227625BRAINE-LE-CHÂTEAU
3.2196FPAAL Marguerite43BELRCNAMUR1:08:391:08:554:49 12.50250596FLAWINNE
4.715FBENOIT Brigitte48BELUSBW1:09:001:09:264:51 12.40254589BRAINE L'ALLEUD
5.2119FDEMAY Isabelle42BELRCB1:10:251:10:494:57 12.16284553BRUXELLES
6.2178FDIEUDONNE Anne40BEL1:12:111:12:115:02 11.93311513JAMBES (NAMUR)
7.372FLEBEAU Marianne47BELUSBWROAD TEAM1:12:561:13:225:07 11.74334491RHODE SAINT GENESE
8.391FVAUSE Fabienne46BELSMAC1:14:001:14:375:12 11.54358463MALONNE
9.267FSALENS Lia46BEL1:14:191:14:575:14 11.49364456WOLVERTEM
10.2180FFOSTER Christiane46BELFLEU1:15:001:15:275:16 11.41375441BOUSVAL
11.2206FEDRIAT Nathalie45FRANAC1:15:201:16:015:18 11.33386430BAISY-THY
12.2252FTURLOT Valerie47BELCABWNAC1:16:181:17:055:23 11.17397412
13.2064FGONZALEZ MADRID Pilar45BELENJAMBEE1:18:271:18:275:28 10.98421371BRUXELLES
14.200FCORNET Anne45BELFLEU1:18:141:19:145:32 10.87432368JEMEPPE SUR SAMBRE
15.2227FVAN EERDEWEGH Christine43BELSPA REINE1:19:091:19:345:33 10.82440352SCHEPDAAL
16.722FMAALSTE Nicole45BELBAIL RUN1:19:271:19:455:34 10.80445345YVOIR
17.880FBOMBLED Laurence44BELBAIL RUN1:19:411:19:595:35 10.77450339GODINNE
18.186FHILLEN Hilde43BELAVN1:20:251:20:435:38 10.67459325MEER
19.2355FDESEAU Sabine41BELJOGGANS1:20:281:21:115:40 10.61463323ANDERLECHT
20.293FCARTIAUX Muriel42BELRCB1:21:301:22:155:44 10.47477302BRUXELLES
21.889FDUCHENE Michelle45BELSMAC1:21:511:22:295:45 10.44480296JAMBES
22.2316FSCHEYVEN Genevieve43BELRCNAMUR1:22:561:23:135:48 10.35491277
23.826FLAMERANT Chantal47BELOXYGENE1:23:251:23:435:50 10.29500266BIERCEE
24.874FHILLEWAERT Francoise45BEL1:23:231:24:005:52 10.25505265RGISNES
25.797FSTIENON Catherine40BELCSFMYSTERE1:24:551:25:035:56 10.12520238UCCLE
26.661FPELLOILE Veronique46FRAFORESTIERE1:30:441:30:456:20 9.49566146LE ROEULX
27.7FHENNERESSE Isabelle41BELJCCS1:31:171:32:206:27 9.33574136GEDINNE
28.2262FLALLEMAND Bernadette47BEL1:34:541:35:426:41 9.0059685PERWEZ
29.707FPOLLE Caroll49BELANTILOB1:35:471:35:476:41 8.9959974LAEKEN
30.2501FBODEUX Claire44BEL1:35:271:36:166:43 8.9460077OTTIGNIES
31.2334FBAPTISTA Helena48BELKURISTOKURISTO1:37:231:37:356:48 8.8260454STERREBEEK
32.2320FDELVIN Regine48BELTORTUES MESLINOISES1:37:171:37:406:49 8.8260654BASSILLY
33.2360FNELIS Patricia46BEL1:39:481:40:207:00 8.5861424MARBAIS (BT.)
34.2515FJULLIEN Florence45BELABOTT TEAM1:39:471:40:207:00 8.5861523VILLERS-LA-VILLE
35.2150FVAN WYMERSCH Sabine45BELCSFMYSTERE1:39:571:40:337:01 8.5661621DROGENBOS
36.2147FSMETS Claire47BEL1:45:441:46:357:26 8.086236GLABAIS
37.2117FDELMARLE Bénédicte46BELANTILOB1:55:131:55:138:02 7.476293GREZ-DOICEAU
DNF2027FVESCERA Teresa49BELRRTCCHATELINEAU
DNF: abandon; DSQ: disqualifié; Vitesse en km/h